Time;durP1;ratioP1;P1;durP2;ratioP2;P2;SDS_P1;SDS_P2;PMS_P1;PMS_P2;Temp;Humidity;BMP_temperature;BMP_pressure;BME280_temperature;BME280_humidity;BME280_pressure;Samples;Min_cycle;Max_cycle;Signal;HPM_P1;HPM_P2
2023/03/05 00:25:30;;;;;;;14.43;6.57;;;2.90;93.30;;;;;;6141398;23;20029;31
2023/03/05 01:21:32;;;;;;;15.70;6.13;;;2.80;94.10;;;;;;6136959;23;21239;31
2023/03/05 01:44:02;;;;;;;13.40;6.00;;;2.80;94.00;;;;;;6145461;22;20022;31
2023/03/05 02:04:58;;;;;;;14.70;6.25;;;2.90;94.00;;;;;;6193300;22;20011;-78
2023/03/05 03:15:30;;;;;;;17.52;6.93;;;3.00;94.20;;;;;;6166474;23;20032;-79
2023/03/05 03:18:28;;;;;;;18.27;6.82;;;3.10;94.20;;;;;;6182469;23;20009;-80
2023/03/05 03:25:15;;;;;;;12.88;6.00;;;3.00;94.40;;;;;;6207100;23;20063;-80
2023/03/05 03:35:29;;;;;;;14.77;5.07;;;3.10;94.20;;;;;;6165462;23;20714;31
2023/03/05 03:41:16;;;;;;;12.45;5.60;;;3.10;94.30;;;;;;6168619;23;20033;-80
2023/03/05 03:50:45;;;;;;;17.17;4.85;;;3.10;94.30;;;;;;6148422;23;20049;-80
2023/03/05 03:53:20;;;;;;;11.55;4.75;;;3.10;94.30;;;;;;6177946;23;20021;-80
2023/03/05 03:56:33;;;;;;;15.65;5.78;;;3.00;94.20;;;;;;6050706;23;20001;-80
2023/03/05 03:59:22;;;;;;;11.18;4.50;;;3.20;94.30;;;;;;6055395;23;20018;-79
2023/03/05 04:08:20;;;;;;;19.20;6.13;;;3.20;94.40;;;;;;6183404;23;20059;-80
2023/03/05 04:10:50;;;;;;;15.50;5.47;;;2.90;94.40;;;;;;6114274;23;20033;-80
2023/03/05 04:13:22;;;;;;;11.93;5.72;;;3.30;94.60;;;;;;6110512;23;19998;-80
2023/03/05 04:19:40;;;;;;;18.17;6.18;;;3.00;94.80;;;;;;6167968;23;20063;-80
2023/03/05 04:26:02;;;;;;;78.95;17.92;;;2.90;95.20;;;;;;6183345;23;20055;-80
2023/03/05 04:28:47;;;;;;;89.70;23.10;;;2.90;95.10;;;;;;6197677;23;20029;-80
2023/03/05 04:31:14;;;;;;;113.63;25.48;;;2.80;95.40;;;;;;6195305;23;20012;-80
2023/03/05 04:39:58;;;;;;;22.17;8.13;;;3.00;95.10;;;;;;6231563;23;20012;-80
2023/03/05 04:46:39;;;;;;;20.70;6.70;;;3.00;95.20;;;;;;6184222;23;20059;-80
2023/03/05 04:49:10;;;;;;;16.42;5.25;;;3.10;95.30;;;;;;6200450;23;20029;-80
2023/03/05 04:51:41;;;;;;;77.28;23.80;;;2.90;95.30;;;;;;6137035;23;20063;-80
2023/03/05 04:57:35;;;;;;;70.70;17.65;;;2.90;95.50;;;;;;6186684;23;20029;-80
2023/03/05 05:07:08;;;;;;;26.60;9.18;;;3.00;96.00;;;;;;6202756;23;20031;-81
2023/03/05 05:10:14;;;;;;;26.98;10.20;;;2.60;96.00;;;;;;6179418;23;20031;-80
2023/03/05 05:18:52;;;;;;;28.00;8.80;;;2.90;96.30;;;;;;6188090;23;20573;-81
2023/03/05 05:21:43;;;;;;;36.55;10.80;;;2.80;96.20;;;;;;6154528;23;20009;-81
2023/03/05 05:24:16;;;;;;;34.55;10.93;;;2.90;96.30;;;;;;6170236;23;20013;-81
2023/03/05 05:30:21;;;;;;;20.55;7.07;;;2.90;96.20;;;;;;6214094;23;20037;-80
2023/03/05 05:33:15;;;;;;;30.50;9.93;;;3.00;96.40;;;;;;6191343;23;20044;-80
2023/03/05 05:35:45;;;;;;;22.02;7.00;;;2.90;96.30;;;;;;6071687;23;20049;-80
2023/03/05 05:44:40;;;;;;;26.30;8.77;;;2.90;96.70;;;;;;6237548;22;20042;-80
2023/03/05 05:47:10;;;;;;;27.42;9.25;;;2.90;96.70;;;;;;6187466;23;20024;-80
2023/03/05 05:50:01;;;;;;;37.22;13.95;;;2.90;96.70;;;;;;6169496;23;20318;-80
2023/03/05 05:56:19;;;;;;;24.85;8.40;;;3.00;96.90;;;;;;6162117;23;20081;31
2023/03/05 06:02:45;;;;;;;37.67;13.93;;;3.10;96.70;;;;;;6117904;23;20061;-80
2023/03/05 06:05:25;;;;;;;27.13;9.18;;;3.00;96.80;;;;;;6144006;23;20026;-79
2023/03/05 06:07:53;;;;;;;24.13;8.82;;;3.10;96.90;;;;;;6093027;23;20022;-80
2023/03/05 06:10:20;;;;;;;21.10;7.97;;;3.00;96.70;;;;;;6118962;23;20002;-80
2023/03/05 06:12:51;;;;;;;18.35;7.07;;;3.00;96.90;;;;;;6073124;23;20006;-80
2023/03/05 06:19:03;;;;;;;22.58;8.25;;;3.10;96.90;;;;;;6165842;22;20024;-79
2023/03/05 06:21:39;;;;;;;28.45;9.55;;;3.10;96.70;;;;;;6165248;23;20024;-80
2023/03/05 06:34:58;;;;;;;19.77;7.53;;;3.10;96.30;;;;;;6181014;23;20282;-80
2023/03/05 06:58:30;;;;;;;20.92;7.38;;;3.50;96.50;;;;;;6177850;22;20089;-80
2023/03/05 07:01:40;;;;;;;29.50;10.38;;;3.40;96.40;;;;;;6156225;23;20025;31
2023/03/05 10:45:54;;;;;;;14.68;5.85;;;6.70;84.40;;;;;;6149751;23;20448;-79
2023/03/05 10:48:34;;;;;;;;;;;6.50;84.70;;;;;;6141000;23;20516;-79
2023/03/05 10:51:24;;;;;;;15.77;5.90;;;6.40;84.50;;;;;;6121668;23;19964;-79
2023/03/05 10:53:58;;;;;;;13.88;6.00;;;6.50;85.40;;;;;;6142120;23;20405;-79
2023/03/05 10:56:27;;;;;;;13.32;6.10;;;6.70;85.10;;;;;;6146300;23;20387;-80
2023/03/05 10:58:55;;;;;;;14.48;6.85;;;6.70;83.90;;;;;;6141431;23;20313;-80
2023/03/05 11:01:31;;;;;;;13.15;5.28;;;6.60;84.20;;;;;;6141520;23;20025;-80
2023/03/05 11:04:26;;;;;;;15.65;6.10;;;6.70;84.40;;;;;;6142270;23;20107;-79
2023/03/05 11:06:54;;;;;;;15.35;7.50;;;7.00;83.40;;;;;;6136732;23;20720;-80
2023/03/05 11:09:33;;;;;;;15.13;6.68;;;7.10;82.70;;;;;;6141822;23;20501;-80
2023/03/05 11:12:05;;;;;;;15.48;8.88;;;7.00;82.50;;;;;;6139577;23;20543;-79
2023/03/05 11:14:39;;;;;;;18.10;7.93;;;7.10;81.80;;;;;;6168077;23;20096;-80
2023/03/05 11:17:31;;;;;;;9.73;4.53;;;7.10;81.60;;;;;;6165806;23;20044;-79
2023/03/05 11:20:27;;;;;;;10.32;5.63;;;7.10;79.10;;;;;;6143303;23;20024;-80
2023/03/05 11:23:23;;;;;;;11.20;5.75;;;7.10;79.10;;;;;;6143227;23;20017;-79
2023/03/05 11:26:15;;;;;;;10.25;5.25;;;6.10;79.50;;;;;;6058358;23;20027;-80
2023/03/05 11:28:52;;;;;;;12.70;5.25;;;6.50;80.30;;;;;;6139524;23;20480;-80
2023/03/05 11:31:31;;;;;;;9.90;4.80;;;6.40;80.70;;;;;;6167271;23;20129;-79
2023/03/05 11:34:04;;;;;;;12.02;6.00;;;6.50;79.90;;;;;;6143926;23;20020;-79
2023/03/05 11:36:37;;;;;;;13.45;5.40;;;6.20;79.20;;;;;;6140008;23;20029;-80
2023/03/05 11:39:05;;;;;;;11.48;6.13;;;6.40;79.80;;;;;;6141931;23;20539;-78
2023/03/05 11:41:52;;;;;;;13.95;6.72;;;6.70;79.60;;;;;;6113959;23;20029;-80
2023/03/05 11:44:33;;;;;;;12.25;5.63;;;6.60;79.60;;;;;;6120164;23;20797;-79
2023/03/05 11:47:16;;;;;;;10.77;5.13;;;6.70;79.40;;;;;;6115889;23;20389;-80
2023/03/05 11:49:47;;;;;;;13.52;5.55;;;6.70;79.30;;;;;;6121003;23;20087;-80
2023/03/05 11:52:29;;;;;;;12.33;5.53;;;6.70;79.30;;;;;;6117491;23;20025;-79
2023/03/05 11:55:35;;;;;;;13.32;4.40;;;6.80;78.10;;;;;;6110465;23;20266;-79
2023/03/05 11:58:48;;;;;;;11.55;5.00;;;6.60;78.90;;;;;;6140286;23;20532;-80
2023/03/05 12:01:33;;;;;;;10.73;4.80;;;6.90;78.60;;;;;;6106496;23;20088;-80
2023/03/05 12:04:10;;;;;;;9.93;4.35;;;6.90;78.90;;;;;;6074589;23;20022;-79
2023/03/05 12:06:46;;;;;;;12.02;4.53;;;6.80;77.80;;;;;;6082545;23;20149;-79
2023/03/05 12:09:39;;;;;;;13.48;5.18;;;6.80;78.10;;;;;;6079475;23;20539;-79
2023/03/05 12:12:37;;;;;;;15.45;6.60;;;6.60;78.40;;;;;;6103141;23;20833;-79
2023/03/05 12:15:36;;;;;;;22.25;9.85;;;7.00;77.10;;;;;;6081211;23;20026;-79
2023/03/05 12:18:34;;;;;;;9.95;5.28;;;7.10;76.30;;;;;;6060522;23;20411;-79
2023/03/05 12:21:13;;;;;;;17.08;4.72;;;7.10;75.90;;;;;;6004224;23;20174;-79
2023/03/05 12:23:50;;;;;;;9.48;4.03;;;7.20;75.10;;;;;;6080084;23;20137;-80
2023/03/05 12:26:38;;;;;;;9.27;4.38;;;7.10;74.60;;;;;;6096418;23;20140;-79
2023/03/05 12:29:45;;;;;;;9.73;4.22;;;7.20;73.90;;;;;;6115342;23;20031;-79
2023/03/05 12:32:24;;;;;;;11.35;4.40;;;7.30;74.50;;;;;;6117298;23;20439;-80
2023/03/05 12:35:03;;;;;;;8.65;4.30;;;7.40;75.10;;;;;;6116231;23;20439;-79
2023/03/05 12:37:30;;;;;;;10.80;5.72;;;7.50;74.30;;;;;;6116026;23;20543;-79
2023/03/05 12:40:07;;;;;;;13.95;8.15;;;7.20;74.60;;;;;;6139545;23;20036;-79
2023/03/05 12:42:42;;;;;;;8.13;4.30;;;7.40;74.90;;;;;;6163679;23;20031;-80
2023/03/05 12:45:18;;;;;;;12.52;6.57;;;7.10;74.20;;;;;;6123121;23;20445;-79
2023/03/05 12:47:55;;;;;;;8.68;4.68;;;7.10;74.80;;;;;;6116546;23;20123;-78
2023/03/05 12:50:27;;;;;;;9.02;5.07;;;7.40;74.70;;;;;;6115116;23;20032;-78
2023/03/05 12:53:14;;;;;;;7.40;4.00;;;7.50;73.30;;;;;;6141615;23;20430;-79
2023/03/05 12:55:55;;;;;;;10.40;5.13;;;7.80;72.50;;;;;;6094437;23;20316;-79
2023/03/05 12:58:56;;;;;;;8.30;3.63;;;7.40;70.90;;;;;;6120818;23;20021;-80
2023/03/05 13:01:40;;;;;;;9.27;4.38;;;6.90;71.50;;;;;;6136685;23;20025;-79
2023/03/05 13:04:20;;;;;;;9.40;4.65;;;7.20;72.30;;;;;;6141101;23;20024;-79
2023/03/05 13:07:03;;;;;;;15.45;7.28;;;7.40;72.90;;;;;;6115525;23;20024;-80
2023/03/05 13:09:35;;;;;;;9.75;4.55;;;7.40;73.00;;;;;;6141228;23;20144;-79
2023/03/05 13:12:12;;;;;;;8.23;4.05;;;7.70;71.80;;;;;;6110430;23;20017;-79
2023/03/05 13:15:05;;;;;;;10.95;5.05;;;7.10;70.30;;;;;;6141909;23;20075;-79
2023/03/05 13:17:37;;;;;;;8.55;3.75;;;8.10;70.00;;;;;;6125744;23;20518;-80
2023/03/05 13:20:41;;;;;;;8.95;5.40;;;7.80;70.60;;;;;;6157918;23;20017;-79
2023/03/05 13:23:15;;;;;;;10.82;4.07;;;7.60;70.40;;;;;;6151253;23;20477;-80
2023/03/05 13:26:00;;;;;;;11.93;5.70;;;7.20;71.40;;;;;;6084283;23;20101;-79
2023/03/05 13:28:31;;;;;;;9.07;4.45;;;6.70;71.20;;;;;;6078368;23;20068;-80
2023/03/05 13:31:11;;;;;;;16.88;6.13;;;7.10;71.90;;;;;;6058367;23;20031;-79
2023/03/05 13:33:39;;;;;;;18.38;9.30;;;7.00;72.50;;;;;;6051293;23;20141;-80
2023/03/05 13:36:07;;;;;;;11.70;6.05;;;7.10;72.50;;;;;;6054354;23;20022;-80
2023/03/05 13:38:42;;;;;;;9.10;4.22;;;7.10;72.60;;;;;;6030610;23;20033;-79
2023/03/05 13:41:25;;;;;;;12.13;5.93;;;7.10;72.30;;;;;;6028173;23;20042;-79
2023/03/05 13:43:59;;;;;;;7.75;3.35;;;7.00;72.20;;;;;;6055250;23;20545;-78
2023/03/05 13:46:35;;;;;;;15.18;9.20;;;7.00;71.70;;;;;;6029106;23;20481;-79
2023/03/05 13:49:42;;;;;;;12.32;6.53;;;6.70;71.30;;;;;;6029890;23;20141;-78
2023/03/05 13:52:23;;;;;;;7.78;3.88;;;6.70;72.20;;;;;;5948175;23;20027;-79
2023/03/05 13:54:51;;;;;;;9.07;4.28;;;6.70;72.10;;;;;;5974362;23;20411;-79
2023/03/05 13:57:33;;;;;;;9.15;4.45;;;6.70;72.20;;;;;;6063457;23;20025;-80
2023/03/05 14:00:03;;;;;;;9.40;3.80;;;6.70;72.50;;;;;;6148334;23;20368;-79
2023/03/05 14:02:31;;;;;;;9.88;3.92;;;6.80;71.70;;;;;;6141051;23;20039;-80
2023/03/05 14:04:59;;;;;;;12.43;4.85;;;6.90;72.20;;;;;;6143249;23;20020;-79
2023/03/05 14:07:38;;;;;;;7.85;4.03;;;6.90;71.40;;;;;;6142503;23;20052;-79
2023/03/05 14:10:36;;;;;;;9.70;3.80;;;6.90;70.90;;;;;;6143304;23;20516;-79
2023/03/05 14:13:22;;;;;;;9.70;4.43;;;6.90;71.60;;;;;;6117956;23;20508;-79
2023/03/05 14:16:11;;;;;;;7.03;3.20;;;6.90;71.40;;;;;;6123428;23;20409;-79
2023/03/05 14:18:53;;;;;;;9.45;4.57;;;6.90;71.60;;;;;;6117553;23;20582;-80
2023/03/05 14:21:22;;;;;;;8.65;4.13;;;6.80;72.10;;;;;;6119251;23;20551;-79
2023/03/05 14:23:53;;;;;;;8.93;3.92;;;6.70;72.30;;;;;;6121210;23;20032;-80
2023/03/05 14:26:35;;;;;;;15.45;5.43;;;6.60;72.60;;;;;;6144317;23;20048;-80
2023/03/05 14:29:06;;;;;;;8.73;3.78;;;6.70;73.30;;;;;;6118305;23;20025;-80
2023/03/05 14:31:49;;;;;;;11.65;4.30;;;6.60;73.80;;;;;;6118417;23;20029;-79
2023/03/05 14:34:28;;;;;;;10.98;4.90;;;6.60;75.90;;;;;;6118937;23;20740;-78
2023/03/05 14:37:03;;;;;;;15.20;5.85;;;6.20;76.60;;;;;;6143307;23;20029;-80
2023/03/05 14:39:44;;;;;;;13.02;6.05;;;6.60;77.30;;;;;;6143393;23;20021;-80
2023/03/05 14:42:29;;;;;;;14.88;5.93;;;6.40;77.30;;;;;;6119446;23;20334;-79
2023/03/05 14:45:00;;;;;;;14.38;5.13;;;6.30;77.10;;;;;;6141856;23;20028;-79
2023/03/05 14:47:31;;;;;;;13.43;5.85;;;6.10;77.10;;;;;;6144934;23;20512;-80
2023/03/05 14:49:59;;;;;;;13.80;6.40;;;6.20;77.20;;;;;;6104218;23;20480;-79
2023/03/05 14:52:27;;;;;;;11.90;5.45;;;6.10;77.30;;;;;;6082600;23;20596;-80
2023/03/05 14:54:55;;;;;;;16.02;5.65;;;6.20;77.80;;;;;;6077892;23;20009;-80
2023/03/05 14:57:31;;;;;;;9.20;3.90;;;6.10;77.70;;;;;;6081994;23;20018;-80
2023/03/05 14:59:59;;;;;;;14.88;6.53;;;6.20;77.40;;;;;;6061868;23;20033;-80
2023/03/05 15:02:28;;;;;;;15.77;6.32;;;6.30;77.50;;;;;;5993030;23;20352;-80
2023/03/05 15:04:59;;;;;;;41.90;13.32;;;6.20;77.10;;;;;;5994292;23;20046;-80
2023/03/05 15:07:31;;;;;;;18.55;8.07;;;6.00;77.20;;;;;;5995721;23;20483;-80
2023/03/05 15:09:59;;;;;;;12.02;4.75;;;6.20;77.80;;;;;;5996685;23;20031;-80
2023/03/05 15:12:28;;;;;;;11.43;4.72;;;6.10;77.80;;;;;;5996365;23;20030;-80
2023/03/05 15:14:56;;;;;;;12.60;5.40;;;6.00;78.00;;;;;;5965408;23;20035;-80
2023/03/05 15:17:53;;;;;;;10.02;4.18;;;6.10;78.50;;;;;;5943275;24;20032;-80
2023/03/05 15:20:27;;;;;;;12.45;6.00;;;6.00;78.60;;;;;;5950187;23;20024;-80
2023/03/05 15:22:55;;;;;;;24.95;12.18;;;6.00;78.50;;;;;;6030195;23;20053;-80
2023/03/05 15:25:27;;;;;;;131.15;56.42;;;6.00;77.90;;;;;;6005205;23;20034;-80
2023/03/05 15:27:56;;;;;;;22.70;11.10;;;5.90;78.00;;;;;;6025879;23;20057;-80
2023/03/05 15:30:33;;;;;;;9.32;5.15;;;6.10;78.60;;;;;;6037017;23;20019;-80
2023/03/05 15:33:06;;;;;;;10.27;5.35;;;5.90;78.10;;;;;;6025779;23;20011;-80
2023/03/05 15:35:35;;;;;;;8.15;4.40;;;5.80;78.30;;;;;;6026664;23;20030;-80
2023/03/05 15:38:04;;;;;;;12.80;5.53;;;5.70;78.50;;;;;;6024273;23;20026;-78
2023/03/05 15:40:35;;;;;;;11.80;5.20;;;5.60;78.80;;;;;;6044987;23;20473;-80
2023/03/05 15:43:06;;;;;;;20.67;10.07;;;5.90;78.90;;;;;;6057951;23;20050;-79
2023/03/05 15:45:35;;;;;;;18.40;10.43;;;5.70;78.90;;;;;;6056251;23;20033;-80
2023/03/05 15:48:03;;;;;;;13.07;6.45;;;5.70;79.40;;;;;;6052087;23;20073;-80
2023/03/05 15:50:34;;;;;;;11.45;5.63;;;5.60;79.20;;;;;;5996391;23;20434;-79
2023/03/05 15:53:02;;;;;;;34.22;21.35;;;5.80;79.40;;;;;;6044276;23;20562;-80
2023/03/05 15:55:30;;;;;;;19.80;11.13;;;5.80;79.60;;;;;;6024301;23;20809;-80
2023/03/05 15:58:00;;;;;;;16.58;7.60;;;5.60;79.40;;;;;;6006930;23;20038;-80
2023/03/05 16:00:31;;;;;;;16.27;8.10;;;5.60;79.60;;;;;;6052499;23;20030;-80
2023/03/05 16:02:59;;;;;;;11.57;3.78;;;5.60;79.80;;;;;;6056430;23;20026;-80
2023/03/05 16:05:28;;;;;;;8.00;3.70;;;5.60;80.30;;;;;;6052575;23;20477;-79
2023/03/05 16:07:57;;;;;;;9.00;3.38;;;5.40;79.70;;;;;;6029433;23;20557;-79
2023/03/05 16:10:28;;;;;;;8.32;3.28;;;5.40;79.40;;;;;;6054948;23;20022;-80
2023/03/05 16:13:05;;;;;;;10.98;4.43;;;5.40;79.50;;;;;;6027440;23;20357;-80
2023/03/05 16:15:37;;;;;;;8.80;3.72;;;5.40;79.90;;;;;;6056669;23;20465;-80
2023/03/05 16:18:10;;;;;;;9.30;4.20;;;5.40;79.70;;;;;;6030539;23;20140;-80
2023/03/05 16:20:40;;;;;;;9.63;3.78;;;5.40;79.90;;;;;;6037077;23;20026;-80
2023/03/05 16:23:11;;;;;;;12.25;5.18;;;5.40;79.40;;;;;;6144478;23;20025;-79
2023/03/05 16:25:41;;;;;;;11.23;4.13;;;5.30;79.50;;;;;;6123435;23;20075;-80
2023/03/05 16:28:09;;;;;;;9.68;4.55;;;5.30;78.90;;;;;;6144201;23;20025;-79
2023/03/05 16:30:38;;;;;;;10.07;4.55;;;5.20;78.70;;;;;;6168533;23;20032;-80
2023/03/05 16:33:06;;;;;;;10.32;4.68;;;5.30;79.00;;;;;;6116881;23;20488;-80
2023/03/05 16:35:37;;;;;;;12.00;4.97;;;5.20;79.20;;;;;;6084535;23;20089;-80
2023/03/05 16:38:07;;;;;;;11.68;6.00;;;5.10;79.30;;;;;;6109451;23;20026;-80
2023/03/05 16:40:38;;;;;;;12.30;6.28;;;5.00;79.50;;;;;;6061127;23;20022;-80
2023/03/05 16:43:27;;;;;;;12.68;5.78;;;5.10;80.00;;;;;;6085125;23;20066;-80
2023/03/05 16:45:56;;;;;;;12.75;5.40;;;5.00;80.30;;;;;;6087304;23;20033;-80
2023/03/05 16:48:24;;;;;;;7.55;3.10;;;5.00;80.50;;;;;;6081473;23;20025;-80
2023/03/05 16:50:53;;;;;;;12.45;5.13;;;4.80;80.60;;;;;;6079980;23;20034;-80
2023/03/05 16:53:25;;;;;;;12.68;5.82;;;4.90;80.90;;;;;;6058178;23;20056;-80
2023/03/05 16:55:54;;;;;;;22.67;10.50;;;5.00;81.10;;;;;;6079588;23;20040;-80
2023/03/05 16:58:22;;;;;;;22.45;9.38;;;4.90;81.30;;;;;;6084267;23;20025;-80
2023/03/05 17:00:50;;;;;;;31.10;10.57;;;4.90;81.50;;;;;;6081480;23;20029;-80
2023/03/05 17:03:18;;;;;;;27.77;9.93;;;4.40;81.00;;;;;;6061830;23;20029;-80
2023/03/05 17:05:47;;;;;;;21.05;7.43;;;4.80;81.40;;;;;;6081986;23;20076;-80
2023/03/05 17:08:17;;;;;;;50.90;15.98;;;4.70;81.20;;;;;;6054052;23;20140;-80
2023/03/05 17:10:46;;;;;;;107.78;41.78;;;4.70;81.30;;;;;;6054485;23;20026;-80
2023/03/05 17:13:14;;;;;;;26.17;10.82;;;4.70;81.50;;;;;;6071495;23;20092;-80
2023/03/05 17:15:43;;;;;;;30.65;9.40;;;4.60;81.50;;;;;;6105410;23;20076;-80
2023/03/05 17:18:15;;;;;;;25.40;9.25;;;4.60;81.70;;;;;;6112548;23;20106;-80
2023/03/05 17:20:56;;;;;;;57.85;18.15;;;4.60;81.90;;;;;;6107979;23;20361;-80
2023/03/05 17:23:27;;;;;;;56.28;16.95;;;4.60;81.20;;;;;;6105754;23;20032;-80
2023/03/05 17:25:56;;;;;;;29.75;9.68;;;4.40;80.00;;;;;;6099561;23;20026;-80
2023/03/05 17:28:25;;;;;;;27.05;8.50;;;4.50;79.60;;;;;;6078014;23;20033;-80
2023/03/05 17:31:00;;;;;;;18.15;7.82;;;4.50;78.30;;;;;;6109736;23;20030;-80
2023/03/05 17:33:31;;;;;;;14.75;6.00;;;4.40;78.90;;;;;;6085516;23;20124;-80
2023/03/05 17:36:01;;;;;;;15.30;6.03;;;4.50;78.80;;;;;;6057600;23;20549;-80
2023/03/05 17:38:30;;;;;;;11.02;4.25;;;4.50;78.60;;;;;;6002288;23;20328;-79
2023/03/05 17:41:02;;;;;;;12.25;4.78;;;4.50;78.20;;;;;;6029273;23;20023;-80
2023/03/05 17:43:31;;;;;;;34.78;10.00;;;4.50;78.70;;;;;;6022427;23;20034;-79
2023/03/05 17:46:00;;;;;;;16.00;6.45;;;4.40;79.10;;;;;;6055842;23;20109;-80
2023/03/05 17:48:29;;;;;;;30.95;20.60;;;4.40;79.60;;;;;;6083856;23;20092;-80
2023/03/05 17:50:58;;;;;;;11.32;5.88;;;4.50;81.00;;;;;;6066470;23;20026;-79
2023/03/05 17:53:44;;;;;;;14.88;6.30;;;4.40;80.80;;;;;;6091526;23;20028;-80
2023/03/05 17:56:20;;;;;;;15.15;6.43;;;4.40;81.70;;;;;;6095070;23;20026;-80
2023/03/05 17:58:54;;;;;;;15.43;8.23;;;4.30;81.60;;;;;;6084508;23;20412;-80
2023/03/05 18:01:28;;;;;;;13.40;5.43;;;4.30;82.20;;;;;;6058553;23;20225;-80
2023/03/05 18:03:57;;;;;;;13.55;7.57;;;4.00;81.40;;;;;;5996661;23;20120;-80
2023/03/05 18:06:28;;;;;;;14.45;5.60;;;4.20;81.80;;;;;;6013529;23;20058;-80
2023/03/05 18:08:57;;;;;;;15.43;7.35;;;4.10;81.80;;;;;;6076017;23;20038;-79
2023/03/05 18:11:31;;;;;;;11.95;4.07;;;4.10;81.90;;;;;;6074865;23;20046;-80
2023/03/05 18:14:01;;;;;;;15.98;7.00;;;4.30;81.90;;;;;;6077413;23;20026;-80
2023/03/05 18:16:28;;;;;;;12.82;5.32;;;4.00;81.70;;;;;;6076627;23;20026;-80
2023/03/05 18:18:58;;;;;;;21.92;7.78;;;4.00;82.10;;;;;;6076481;23;20525;-80
2023/03/05 18:21:29;;;;;;;84.40;27.63;;;4.00;82.30;;;;;;6076248;23;20018;-79
2023/03/05 18:23:58;;;;;;;43.03;14.23;;;3.90;82.30;;;;;;6075957;23;20105;-80
2023/03/05 18:26:26;;;;;;;26.45;10.60;;;4.00;82.70;;;;;;6077382;23;20022;-79
2023/03/05 18:29:00;;;;;;;17.63;7.05;;;3.80;82.60;;;;;;6059051;23;20121;-80
2023/03/05 18:31:28;;;;;;;10.82;4.05;;;4.10;83.00;;;;;;6079429;23;20041;-80
2023/03/05 18:33:58;;;;;;;15.63;6.38;;;3.90;83.20;;;;;;6083077;23;20030;-80
2023/03/05 18:36:29;;;;;;;18.02;6.68;;;4.00;83.50;;;;;;6120625;23;20096;-79
2023/03/05 18:38:58;;;;;;;31.85;10.55;;;3.60;83.40;;;;;;6147204;23;20100;-80
2023/03/05 18:41:26;;;;;;;40.60;14.80;;;3.80;83.50;;;;;;6123689;23;20504;-80
2023/03/05 18:43:55;;;;;;;66.07;24.17;;;3.80;84.00;;;;;;6145306;23;20128;-80
2023/03/05 18:46:24;;;;;;;47.20;15.25;;;4.00;84.00;;;;;;6120000;23;20036;-80
2023/03/05 18:48:53;;;;;;;36.42;13.00;;;3.90;84.40;;;;;;6124000;23;20476;-80
2023/03/05 18:51:26;;;;;;;36.13;11.25;;;3.70;83.80;;;;;;6121579;23;20033;-80
2023/03/05 18:53:58;;;;;;;279.42;80.28;;;3.80;84.00;;;;;;6117708;23;20324;-80
2023/03/05 18:56:30;;;;;;;103.63;39.40;;;3.80;84.40;;;;;;6123309;23;20236;-80
2023/03/05 18:58:58;;;;;;;73.38;28.13;;;3.90;84.20;;;;;;6119516;23;20032;-80
2023/03/05 19:01:27;;;;;;;68.95;25.38;;;3.80;84.00;;;;;;6112073;23;20122;-80
2023/03/05 19:03:56;;;;;;;90.25;31.70;;;3.80;84.00;;;;;;6071594;23;20109;-81
2023/03/05 19:06:25;;;;;;;128.15;42.95;;;3.70;84.10;;;;;;6067505;23;20030;-80
2023/03/05 19:08:57;;;;;;;137.48;44.22;;;3.40;83.90;;;;;;6040306;23;20148;-80
2023/03/05 19:11:26;;;;;;;163.23;49.20;;;3.90;84.30;;;;;;6057319;23;20018;-80
2023/03/05 19:13:57;;;;;;;206.02;60.55;;;3.50;84.10;;;;;;6083172;23;20124;-80
2023/03/05 19:16:32;;;;;;;216.93;61.97;;;3.80;84.70;;;;;;6088179;23;20422;-80
2023/03/05 19:19:14;;;;;;;111.45;33.85;;;3.80;84.60;;;;;;6062343;23;20651;-80
2023/03/05 19:21:48;;;;;;;47.90;19.63;;;3.80;84.60;;;;;;6085551;23;20025;-80
2023/03/05 19:24:17;;;;;;;74.78;26.95;;;3.70;84.20;;;;;;6110729;23;20493;-80
2023/03/05 19:26:46;;;;;;;164.48;54.90;;;3.60;84.30;;;;;;6062873;23;20046;-80
2023/03/05 19:29:15;;;;;;;98.50;38.10;;;3.60;84.30;;;;;;6082988;23;20033;-79
2023/03/05 19:31:46;;;;;;;28.48;14.52;;;3.60;84.40;;;;;;6068031;23;20029;-80
2023/03/05 19:34:16;;;;;;;26.17;12.05;;;3.60;84.30;;;;;;6113552;23;20524;-80
2023/03/05 19:36:45;;;;;;;22.13;9.55;;;3.60;84.60;;;;;;6114822;23;20525;-79
2023/03/05 19:39:15;;;;;;;19.27;9.45;;;3.60;84.90;;;;;;6136964;23;20080;-80
2023/03/05 19:41:44;;;;;;;20.08;10.80;;;3.60;84.60;;;;;;6143969;23;20088;-80
2023/03/05 19:44:13;;;;;;;20.85;7.25;;;3.30;84.40;;;;;;6118546;23;20367;-80
2023/03/05 19:46:42;;;;;;;21.38;9.57;;;3.40;84.40;;;;;;6145551;23;20021;-80
2023/03/05 19:49:11;;;;;;;16.85;8.23;;;3.20;84.80;;;;;;6142423;23;20043;-80
2023/03/05 19:51:42;;;;;;;20.00;8.82;;;3.40;85.50;;;;;;6138473;23;20335;-80
2023/03/05 19:54:18;;;;;;;21.10;7.22;;;3.20;85.40;;;;;;6112069;23;20032;-80
2023/03/05 19:56:50;;;;;;;18.27;6.43;;;3.40;85.10;;;;;;6136609;23;20033;-80
2023/03/05 19:59:21;;;;;;;20.27;8.55;;;3.30;85.20;;;;;;6106446;23;20446;-80
2023/03/05 20:01:53;;;;;;;22.42;9.93;;;3.40;85.60;;;;;;6138748;23;20528;-80
2023/03/05 20:04:26;;;;;;;27.63;11.80;;;3.40;86.00;;;;;;6145121;23;20052;-80
2023/03/05 20:06:55;;;;;;;32.58;13.23;;;2.30;85.20;;;;;;6095837;23;20538;-80
2023/03/05 20:09:24;;;;;;;37.33;14.32;;;3.30;86.10;;;;;;6121811;23;20036;-80
2023/03/05 20:11:57;;;;;;;67.07;24.73;;;3.30;86.50;;;;;;6121426;23;20029;-80
2023/03/05 20:14:30;;;;;;;97.82;31.83;;;3.20;86.50;;;;;;6153041;23;20032;-80
2023/03/05 20:16:59;;;;;;;107.95;32.90;;;2.90;86.50;;;;;;6123512;23;20021;-80
2023/03/05 20:19:27;;;;;;;52.35;19.15;;;3.40;87.20;;;;;;6124005;23;20024;-80
2023/03/05 20:21:55;;;;;;;111.90;35.95;;;3.20;86.80;;;;;;6125269;23;20024;-80
2023/03/05 20:24:26;;;;;;;65.72;23.17;;;3.20;86.90;;;;;;6125282;23;20032;-80
2023/03/05 20:26:54;;;;;;;67.47;23.73;;;3.00;86.80;;;;;;6123532;23;20421;-80
2023/03/05 20:29:26;;;;;;;64.97;22.25;;;2.80;86.60;;;;;;6180224;23;20027;-80
2023/03/05 20:31:59;;;;;;;62.55;22.13;;;3.00;87.30;;;;;;6121281;23;20052;-80
2023/03/05 20:34:29;;;;;;;55.28;19.67;;;3.00;87.60;;;;;;6118987;23;20044;-80
2023/03/05 20:36:58;;;;;;;46.50;18.13;;;3.10;87.90;;;;;;6119572;23;20116;-80
2023/03/05 20:39:35;;;;;;;40.15;14.82;;;3.10;88.20;;;;;;6097109;23;20344;-80
2023/03/05 20:42:04;;;;;;;29.98;11.18;;;3.00;88.10;;;;;;6118690;23;20025;-80
2023/03/05 20:44:35;;;;;;;31.95;10.70;;;3.10;88.50;;;;;;6146338;23;20024;-80
2023/03/05 20:47:24;;;;;;;26.35;10.07;;;3.10;88.30;;;;;;6119984;23;20025;-80
2023/03/05 20:49:55;;;;;;;23.35;8.55;;;3.20;88.50;;;;;;6143035;23;20024;-80
2023/03/05 20:52:23;;;;;;;21.38;8.63;;;3.00;88.50;;;;;;6115496;23;20448;-80
2023/03/05 20:54:52;;;;;;;20.95;7.88;;;3.10;88.60;;;;;;6144797;23;20017;-80
2023/03/05 20:57:21;;;;;;;18.67;6.72;;;3.20;88.80;;;;;;6116353;23;20361;-80
2023/03/05 20:59:49;;;;;;;18.95;8.02;;;3.10;88.90;;;;;;6115657;23;20025;-80
2023/03/05 21:02:18;;;;;;;18.30;7.97;;;2.80;89.00;;;;;;6146157;23;20025;-80
2023/03/05 21:04:52;;;;;;;17.60;8.48;;;3.00;89.40;;;;;;6118188;23;20025;-80
2023/03/05 21:07:21;;;;;;;19.98;8.32;;;2.90;89.60;;;;;;6114620;23;20028;-80
2023/03/05 21:09:49;;;;;;;20.67;7.82;;;2.90;90.00;;;;;;6080919;23;20026;-80
2023/03/05 21:12:18;;;;;;;19.13;7.93;;;3.20;90.00;;;;;;6058864;23;20052;-80
2023/03/05 21:14:46;;;;;;;18.48;8.05;;;3.30;90.00;;;;;;6032806;23;20027;-80
2023/03/05 21:17:13;;;;;;;21.48;7.40;;;3.10;90.00;;;;;;6057388;23;20025;-80
2023/03/05 21:19:42;;;;;;;20.80;8.77;;;3.10;90.20;;;;;;6082538;23;20512;-80
2023/03/05 21:22:10;;;;;;;27.67;9.63;;;3.10;90.20;;;;;;6060051;23;20032;-80
2023/03/05 21:27:25;;;;;;;23.38;8.48;;;3.10;90.20;;;;;;6082251;23;20113;-80
2023/03/05 21:29:53;;;;;;;21.70;8.95;;;3.10;90.30;;;;;;6083581;23;20029;-80
2023/03/05 21:32:22;;;;;;;22.13;8.80;;;3.10;90.30;;;;;;6059984;23;20029;-80
2023/03/05 21:34:50;;;;;;;79.68;36.83;;;3.20;90.40;;;;;;6061903;23;20029;-80
2023/03/05 21:37:22;;;;;;;74.75;30.92;;;3.00;90.50;;;;;;6061354;23;20029;-80
2023/03/05 21:39:53;;;;;;;85.85;27.65;;;3.10;90.60;;;;;;6064906;23;20166;-80
2023/03/05 21:42:21;;;;;;;60.75;17.30;;;3.00;90.70;;;;;;6122283;23;20052;-80
2023/03/05 21:44:55;;;;;;;;;;;3.00;90.90;;;;;;6126646;23;20025;-80
2023/03/05 21:47:23;;;;;;;29.50;10.45;;;3.00;90.70;;;;;;6120908;23;19920;-80
2023/03/05 21:49:53;;;;;;;24.20;8.23;;;3.00;90.80;;;;;;6149528;23;20025;-80
2023/03/05 21:52:21;;;;;;;22.85;8.95;;;3.10;90.80;;;;;;6122277;23;20025;-80
2023/03/05 21:54:51;;;;;;;43.15;14.13;;;3.10;90.70;;;;;;6145881;23;20443;-80
2023/03/05 21:57:21;;;;;;;43.50;16.58;;;3.10;90.80;;;;;;6125644;23;20031;-80
2023/03/05 21:59:49;;;;;;;33.28;11.82;;;3.10;90.80;;;;;;6123486;23;20463;-80
2023/03/05 22:02:18;;;;;;;26.20;11.65;;;2.90;90.90;;;;;;6120106;23;20020;-80
2023/03/05 22:04:49;;;;;;;24.58;10.55;;;3.00;91.00;;;;;;6121070;23;20024;-80
2023/03/05 22:07:19;;;;;;;25.90;10.20;;;3.10;91.10;;;;;;6123145;23;20022;-80